createdAt,value
2023-01-25T00:01:12.266Z,9.08
2023-01-25T00:03:39.324Z,9.10
2023-01-25T00:06:06.489Z,9.09
2023-01-25T00:08:33.750Z,9.09
2023-01-25T00:11:01.784Z,9.05
2023-01-25T00:13:28.884Z,9.09
2023-01-25T00:16:05.163Z,9.09
2023-01-25T00:18:36.167Z,9.08
2023-01-25T00:21:18.071Z,9.04
2023-01-25T00:23:45.455Z,9.07
2023-01-25T00:26:12.427Z,9.08
2023-01-25T00:28:39.572Z,9.08
2023-01-25T00:31:08.022Z,9.10
2023-01-25T00:33:38.077Z,9.10
2023-01-25T00:36:25.010Z,9.14
2023-01-25T00:38:54.455Z,9.14
2023-01-25T00:41:21.430Z,9.16
2023-01-25T00:43:48.374Z,9.14
2023-01-25T00:46:17.215Z,9.14
2023-01-25T00:48:46.025Z,9.16
2023-01-25T00:51:13.108Z,9.17
2023-01-25T00:53:40.157Z,9.16
2023-01-25T00:56:07.468Z,9.18
2023-01-25T00:58:34.476Z,9.19
2023-01-25T01:01:01.506Z,9.21
2023-01-25T01:03:29.740Z,9.21
2023-01-25T01:06:06.921Z,9.21
2023-01-25T01:08:36.859Z,9.23
2023-01-25T01:11:06.831Z,9.25
2023-01-25T01:13:34.981Z,9.28
2023-01-25T01:16:05.079Z,9.29
2023-01-25T01:18:37.513Z,9.36
2023-01-25T01:21:04.857Z,9.37
2023-01-25T01:23:32.661Z,9.40
2023-01-25T01:26:01.512Z,9.43
2023-01-25T01:28:30.081Z,9.36
2023-01-25T01:31:24.557Z,9.39
2023-01-25T01:34:04.170Z,9.39
2023-01-25T01:36:31.502Z,9.39
2023-01-25T01:39:00.056Z,9.33
2023-01-25T01:41:27.429Z,9.35
2023-01-25T01:43:54.824Z,9.37
2023-01-25T01:46:23.844Z,9.39
2023-01-25T01:48:58.227Z,9.37
2023-01-25T01:51:36.236Z,9.34
2023-01-25T01:54:26.602Z,9.32
2023-01-25T01:57:08.780Z,9.30
2023-01-25T01:59:52.462Z,9.28
2023-01-25T02:02:19.879Z,9.26
2023-01-25T02:04:49.444Z,9.31
2023-01-25T02:07:16.790Z,9.21
2023-01-25T02:09:48.152Z,9.29
2023-01-25T02:12:16.424Z,9.37
2023-01-25T02:14:49.177Z,9.51
2023-01-25T02:17:30.498Z,9.64
2023-01-25T02:20:38.942Z,9.72
2023-01-25T02:23:40.699Z,9.80
2023-01-25T02:26:08.250Z,9.83
2023-01-25T02:28:45.000Z,9.90
2023-01-25T02:31:11.986Z,9.96
2023-01-25T02:33:39.012Z,10.01
2023-01-25T02:36:08.972Z,10.06
2023-01-25T02:38:44.096Z,10.05
2023-01-25T02:41:25.857Z,10.02
2023-01-25T02:43:53.044Z,10.04
2023-01-25T02:46:29.282Z,10.05
2023-01-25T02:48:57.703Z,10.06
2023-01-25T02:51:27.063Z,10.09
2023-01-25T02:53:55.992Z,10.02
2023-01-25T02:56:24.149Z,10.02
2023-01-25T02:58:51.128Z,9.98
2023-01-25T03:01:20.553Z,9.92
2023-01-25T03:03:47.730Z,9.93
2023-01-25T03:06:14.725Z,9.93
2023-01-25T03:08:44.042Z,9.92
2023-01-25T03:11:11.109Z,9.90
2023-01-25T03:13:38.820Z,9.88
2023-01-25T03:16:09.233Z,9.82
2023-01-25T03:18:37.682Z,9.86
2023-01-25T03:21:09.741Z,9.90
2023-01-25T03:23:37.499Z,9.94
2023-01-25T03:26:07.386Z,9.94
2023-01-25T03:28:34.813Z,9.98
2023-01-25T03:31:02.957Z,10.05
2023-01-25T03:33:30.277Z,10.05
2023-01-25T03:35:58.927Z,10.08
2023-01-25T03:38:28.671Z,10.12
2023-01-25T03:40:57.479Z,10.14
2023-01-25T03:43:25.434Z,10.17
2023-01-25T03:46:01.154Z,10.18
2023-01-25T03:48:30.075Z,10.25
2023-01-25T03:50:59.501Z,10.26
2023-01-25T03:53:30.051Z,10.22
2023-01-25T03:56:08.730Z,10.20
2023-01-25T03:58:38.650Z,10.15
2023-01-25T04:01:07.974Z,10.14
2023-01-25T04:03:35.503Z,10.11
2023-01-25T04:06:02.680Z,10.08
2023-01-25T04:08:31.576Z,10.04
2023-01-25T04:11:05.724Z,9.92
2023-01-25T04:13:35.419Z,9.88
2023-01-25T04:16:12.060Z,9.83
2023-01-25T04:19:14.027Z,9.80
2023-01-25T04:21:43.077Z,9.77
2023-01-25T04:24:10.034Z,9.75
2023-01-25T04:26:42.670Z,9.73
2023-01-25T04:29:10.885Z,9.70
2023-01-25T04:31:38.528Z,9.70
2023-01-25T04:34:06.312Z,9.67
2023-01-25T04:36:33.413Z,9.64
2023-01-25T04:39:00.539Z,9.64
2023-01-25T04:41:29.433Z,9.67
2023-01-25T04:43:57.399Z,9.70
2023-01-25T04:46:25.286Z,9.72
2023-01-25T04:48:53.913Z,9.76
2023-01-25T04:51:21.402Z,9.80
2023-01-25T04:53:48.500Z,9.78
2023-01-25T04:56:15.658Z,9.83
2023-01-25T04:58:52.219Z,9.76
2023-01-25T05:01:19.421Z,9.79
2023-01-25T05:03:46.492Z,9.75
2023-01-25T05:06:34.069Z,9.75
2023-01-25T05:09:01.343Z,9.78
2023-01-25T05:11:28.343Z,9.80
2023-01-25T05:14:02.193Z,9.78
2023-01-25T05:16:32.974Z,9.75
2023-01-25T05:19:00.720Z,9.76
2023-01-25T05:22:00.740Z,9.76
2023-01-25T05:24:36.739Z,9.72
2023-01-25T05:27:09.076Z,9.69
2023-01-25T05:29:54.991Z,9.65
2023-01-25T05:32:40.601Z,9.64
2023-01-25T05:35:08.684Z,9.64
2023-01-25T05:37:36.179Z,9.61
2023-01-25T05:40:08.695Z,9.61
2023-01-25T05:42:38.381Z,9.58
2023-01-25T05:45:11.209Z,9.59
2023-01-25T05:47:39.915Z,9.57
2023-01-25T05:50:08.803Z,9.57
2023-01-25T05:52:57.483Z,9.52
2023-01-25T05:55:24.738Z,9.53
2023-01-25T05:57:56.484Z,9.51
2023-01-25T06:00:23.988Z,9.50
2023-01-25T06:02:51.129Z,9.43
2023-01-25T06:05:22.697Z,9.40
2023-01-25T06:07:49.913Z,9.41
2023-01-25T06:10:18.642Z,9.43
2023-01-25T06:12:49.122Z,9.42
2023-01-25T06:15:17.080Z,9.43
2023-01-25T06:17:44.724Z,9.45
2023-01-25T06:20:26.092Z,9.45
2023-01-25T06:23:05.485Z,9.41
2023-01-25T06:25:32.469Z,9.41
2023-01-25T06:27:59.421Z,9.44
2023-01-25T06:30:26.361Z,9.45
2023-01-25T06:32:53.311Z,9.46
2023-01-25T06:35:21.141Z,9.41
2023-01-25T06:37:49.364Z,9.39
2023-01-25T06:40:16.730Z,9.37
2023-01-25T06:42:43.726Z,9.37
2023-01-25T06:45:11.485Z,9.34
2023-01-25T06:47:38.651Z,9.29
2023-01-25T06:50:06.088Z,9.26
2023-01-25T06:52:36.555Z,9.24
2023-01-25T06:55:08.568Z,9.24
2023-01-25T06:57:35.908Z,9.19
2023-01-25T07:00:03.046Z,9.15
2023-01-25T07:02:29.995Z,9.20
2023-01-25T07:04:56.909Z,9.17
2023-01-25T07:07:23.828Z,9.19
2023-01-25T07:09:50.757Z,9.17
2023-01-25T07:12:19.727Z,9.12
2023-01-25T07:14:49.730Z,9.07
2023-01-25T07:17:16.845Z,9.07
2023-01-25T07:19:43.805Z,9.07
2023-01-25T07:22:10.783Z,9.00
2023-01-25T07:24:37.708Z,9.04
2023-01-25T07:27:04.711Z,9.06
2023-01-25T07:29:31.863Z,9.02
2023-01-25T07:31:58.772Z,9.05
2023-01-25T07:34:25.936Z,9.12
2023-01-25T07:36:52.900Z,9.18
2023-01-25T07:39:19.887Z,9.28
2023-01-25T07:41:46.894Z,9.36
2023-01-25T07:44:17.747Z,9.45
2023-01-25T07:46:47.601Z,9.76
2023-01-25T07:49:14.710Z,10.32
2023-01-25T07:51:41.747Z,10.90
2023-01-25T07:54:12.378Z,11.18
2023-01-25T07:56:40.687Z,11.28
2023-01-25T07:59:08.516Z,11.45
2023-01-25T08:01:37.119Z,11.45
2023-01-25T08:04:05.175Z,11.37
2023-01-25T08:06:39.420Z,11.36
2023-01-25T08:09:11.019Z,11.32
2023-01-25T08:11:38.621Z,11.32
2023-01-25T08:14:05.778Z,11.19
2023-01-25T08:16:32.915Z,11.16
2023-01-25T08:19:01.624Z,11.27
2023-01-25T08:21:32.334Z,11.32
2023-01-25T08:24:00.819Z,11.42
2023-01-25T08:26:31.570Z,11.43
2023-01-25T08:28:59.599Z,11.45
2023-01-25T08:31:30.086Z,11.57
2023-01-25T08:33:57.801Z,11.59
2023-01-25T08:36:24.984Z,12.42
2023-01-25T08:38:57.849Z,13.80
2023-01-25T08:41:26.164Z,15.25
2023-01-25T08:43:55.166Z,16.97
2023-01-25T08:46:24.903Z,18.40
2023-01-25T08:48:58.114Z,19.83
2023-01-25T08:51:26.300Z,20.88
2023-01-25T08:53:53.577Z,21.52
2023-01-25T08:56:21.189Z,22.08
2023-01-25T08:58:50.209Z,22.46
2023-01-25T09:01:19.930Z,22.74
2023-01-25T09:03:49.829Z,23.13
2023-01-25T09:06:17.790Z,23.60
2023-01-25T09:08:44.842Z,24.20
2023-01-25T09:11:14.660Z,24.70
2023-01-25T09:13:43.780Z,25.24
2023-01-25T09:16:16.138Z,25.68
2023-01-25T09:18:44.964Z,26.32
2023-01-25T09:21:14.362Z,27.10
2023-01-25T09:23:50.954Z,27.25
2023-01-25T09:26:32.461Z,27.74
2023-01-25T09:28:59.697Z,28.29
2023-01-25T09:31:27.941Z,28.26
2023-01-25T09:34:19.104Z,28.88
2023-01-25T09:36:46.091Z,29.26
2023-01-25T09:39:13.584Z,29.27
2023-01-25T09:41:52.710Z,29.93
2023-01-25T09:44:26.297Z,30.22
2023-01-25T09:47:04.942Z,29.89
2023-01-25T09:49:56.186Z,30.22
2023-01-25T09:52:51.072Z,30.58
2023-01-25T09:55:19.217Z,30.81
2023-01-25T09:57:50.134Z,30.93
2023-01-25T10:00:32.113Z,30.95
2023-01-25T10:03:11.252Z,31.37
2023-01-25T10:05:48.474Z,31.57
2023-01-25T10:08:57.388Z,31.77
2023-01-25T10:11:30.876Z,31.76
2023-01-25T10:13:59.107Z,31.76
2023-01-25T10:16:51.246Z,31.63
2023-01-25T10:19:39.711Z,31.39
2023-01-25T10:22:28.955Z,30.63
2023-01-25T10:24:59.751Z,30.83
2023-01-25T10:27:45.433Z,31.68
2023-01-25T10:30:55.853Z,32.25
2023-01-25T10:33:22.988Z,32.52
2023-01-25T10:35:50.560Z,32.97
2023-01-25T10:38:26.053Z,33.24
2023-01-25T10:41:02.718Z,32.87
2023-01-25T10:43:30.716Z,32.27
2023-01-25T10:45:57.639Z,32.10
2023-01-25T10:48:30.050Z,31.55
2023-01-25T10:50:57.879Z,31.02
2023-01-25T10:53:32.255Z,31.51
2023-01-25T10:56:11.171Z,31.88
2023-01-25T10:58:41.209Z,30.97
2023-01-25T11:01:25.649Z,31.02
2023-01-25T11:03:52.571Z,30.74
2023-01-25T11:06:39.039Z,30.71
2023-01-25T11:09:33.729Z,31.04
2023-01-25T11:12:15.508Z,31.36
2023-01-25T11:14:42.895Z,31.09
2023-01-25T11:17:26.436Z,30.72
2023-01-25T11:20:20.674Z,31.00
2023-01-25T11:22:56.557Z,30.98
2023-01-25T11:25:34.589Z,31.09
2023-01-25T11:28:23.297Z,30.74
2023-01-25T11:30:54.029Z,30.33
2023-01-25T11:33:22.493Z,29.52
2023-01-25T11:36:16.836Z,28.47
2023-01-25T11:39:03.595Z,27.45
2023-01-25T11:41:44.059Z,26.57
2023-01-25T11:44:47.951Z,25.78
2023-01-25T11:47:33.287Z,25.17
2023-01-25T11:50:16.828Z,24.55
2023-01-25T11:53:20.976Z,23.99
2023-01-25T11:55:55.554Z,23.38
2023-01-25T11:58:53.670Z,22.94
2023-01-25T12:01:23.554Z,22.62
2023-01-25T12:04:21.309Z,22.18
2023-01-25T12:07:30.820Z,21.77
2023-01-25T12:10:40.578Z,21.38
2023-01-25T12:13:39.471Z,21.30
2023-01-25T12:16:29.551Z,21.08
2023-01-25T12:19:13.530Z,21.01
2023-01-25T12:21:43.256Z,20.77
2023-01-25T12:24:47.711Z,20.77
2023-01-25T12:27:23.300Z,20.73
2023-01-25T12:30:00.740Z,20.61
2023-01-25T12:32:40.360Z,20.34
2023-01-25T12:35:59.282Z,20.41
2023-01-25T12:38:58.444Z,20.09
2023-01-25T12:41:34.006Z,20.07
2023-01-25T12:44:12.416Z,20.11
2023-01-25T12:46:39.316Z,19.85
2023-01-25T12:49:15.155Z,19.87
2023-01-25T12:51:44.544Z,19.85
2023-01-25T12:54:28.657Z,19.83
2023-01-25T12:57:19.745Z,19.64
2023-01-25T13:00:07.153Z,19.77
2023-01-25T13:02:37.107Z,19.70
2023-01-25T13:05:51.208Z,19.78
2023-01-25T13:08:38.830Z,19.81
2023-01-25T13:11:22.753Z,19.76
2023-01-25T13:13:49.827Z,19.73
2023-01-25T13:16:38.662Z,19.68
2023-01-25T13:19:29.369Z,19.68
2023-01-25T13:22:00.629Z,19.62
2023-01-25T13:24:34.933Z,19.52
2023-01-25T13:27:26.274Z,19.47
2023-01-25T13:29:59.133Z,19.47
2023-01-25T13:32:26.641Z,19.36
2023-01-25T13:34:53.539Z,19.34
2023-01-25T13:37:24.866Z,19.26
2023-01-25T13:40:33.576Z,19.21
2023-01-25T13:43:05.398Z,19.12
2023-01-25T13:45:38.628Z,19.08
2023-01-25T13:48:09.126Z,19.00
2023-01-25T13:50:48.941Z,18.84
2023-01-25T13:53:15.813Z,18.84
2023-01-25T13:55:54.306Z,18.90
2023-01-25T13:58:38.870Z,18.92
2023-01-25T14:01:14.495Z,18.84
2023-01-25T14:03:44.812Z,18.65
2023-01-25T14:06:20.799Z,18.59
2023-01-25T14:08:49.082Z,18.39
2023-01-25T14:11:21.313Z,18.36
2023-01-25T14:14:16.635Z,18.36
2023-01-25T14:16:44.078Z,18.34
2023-01-25T14:19:25.232Z,18.28
2023-01-25T14:22:20.130Z,18.25
2023-01-25T14:25:02.253Z,18.20
2023-01-25T14:27:29.368Z,18.15
2023-01-25T14:29:56.472Z,18.11
2023-01-25T14:32:26.592Z,18.06
2023-01-25T14:34:53.530Z,18.03
2023-01-25T14:37:22.368Z,18.10
2023-01-25T14:39:52.288Z,17.96
2023-01-25T14:42:20.678Z,17.67
2023-01-25T14:44:48.474Z,17.50
2023-01-25T14:47:23.983Z,17.56
2023-01-25T14:49:50.999Z,17.51
2023-01-25T14:52:20.700Z,17.29
2023-01-25T14:54:54.720Z,17.16
2023-01-25T14:57:39.752Z,16.99
2023-01-25T15:00:17.571Z,16.80
2023-01-25T15:02:55.270Z,16.88
2023-01-25T15:05:28.005Z,16.90
2023-01-25T15:07:57.614Z,16.91
2023-01-25T15:10:33.330Z,16.79
2023-01-25T15:13:14.633Z,16.79
2023-01-25T15:15:56.699Z,16.84
2023-01-25T15:18:45.343Z,16.81
2023-01-25T15:21:33.855Z,16.69
2023-01-25T15:24:06.596Z,16.66
2023-01-25T15:26:36.058Z,16.64
2023-01-25T15:29:14.157Z,16.49
2023-01-25T15:31:42.079Z,16.43
2023-01-25T15:34:18.105Z,16.43
2023-01-25T15:36:45.143Z,16.40
2023-01-25T15:39:16.746Z,16.38
2023-01-25T15:41:44.528Z,16.40
2023-01-25T15:44:12.170Z,16.18
2023-01-25T15:46:41.812Z,16.24
2023-01-25T15:49:16.925Z,16.24
2023-01-25T15:51:43.979Z,16.13
2023-01-25T15:54:10.909Z,16.08
2023-01-25T15:56:40.409Z,16.02
2023-01-25T15:59:13.728Z,15.90
2023-01-25T16:01:40.732Z,15.78
2023-01-25T16:04:10.528Z,15.74
2023-01-25T16:06:50.236Z,15.74
2023-01-25T16:09:21.619Z,15.63
2023-01-25T16:11:51.635Z,15.61
2023-01-25T16:14:19.326Z,15.57
2023-01-25T16:16:52.461Z,15.56
2023-01-25T16:19:22.225Z,15.47
2023-01-25T16:21:49.522Z,15.43
2023-01-25T16:24:17.117Z,15.38
2023-01-25T16:26:49.970Z,15.16
2023-01-25T16:29:16.954Z,15.04
2023-01-25T16:31:43.917Z,15.05
2023-01-25T16:34:10.911Z,15.00
2023-01-25T16:36:39.647Z,14.97
2023-01-25T16:39:19.587Z,14.91
2023-01-25T16:41:47.543Z,14.85
2023-01-25T16:44:20.430Z,14.81
2023-01-25T16:46:51.238Z,14.74
2023-01-25T16:49:24.551Z,14.66
2023-01-25T16:51:51.822Z,14.51
2023-01-25T16:54:23.599Z,14.45
2023-01-25T16:56:52.156Z,14.40
2023-01-25T16:59:20.134Z,14.36
2023-01-25T17:01:47.142Z,14.27
2023-01-25T17:04:14.994Z,14.20
2023-01-25T17:06:45.371Z,14.14
2023-01-25T17:09:25.450Z,14.03
2023-01-25T17:11:54.301Z,13.95
2023-01-25T17:14:22.093Z,13.85
2023-01-25T17:16:51.793Z,13.78
2023-01-25T17:19:19.751Z,13.68
2023-01-25T17:21:47.005Z,13.51
2023-01-25T17:24:16.589Z,13.41
2023-01-25T17:26:43.955Z,13.25
2023-01-25T17:29:11.395Z,13.16
2023-01-25T17:31:39.870Z,13.09
2023-01-25T17:34:08.720Z,13.07
2023-01-25T17:36:35.684Z,12.96
2023-01-25T17:39:07.301Z,12.87
2023-01-25T17:41:34.590Z,12.79
2023-01-25T17:44:01.624Z,12.72
2023-01-25T17:46:33.176Z,12.67
2023-01-25T17:49:02.303Z,12.57
2023-01-25T17:51:31.180Z,12.51
2023-01-25T17:53:58.321Z,12.45
2023-01-25T17:56:26.088Z,12.36
2023-01-25T17:58:53.631Z,12.29
2023-01-25T18:01:26.477Z,12.26
2023-01-25T18:03:54.485Z,12.23
2023-01-25T18:06:25.215Z,12.17
2023-01-25T18:08:54.944Z,12.17
2023-01-25T18:11:25.935Z,12.10
2023-01-25T18:13:58.815Z,12.07
2023-01-25T18:16:27.706Z,11.90
2023-01-25T18:18:57.040Z,11.85
2023-01-25T18:21:26.859Z,11.74
2023-01-25T18:24:03.551Z,11.61
2023-01-25T18:26:37.164Z,11.54
2023-01-25T18:29:09.923Z,11.47
2023-01-25T18:31:37.343Z,11.38
2023-01-25T18:34:04.664Z,11.33
2023-01-25T18:36:31.696Z,11.25
2023-01-25T18:39:00.068Z,11.26
2023-01-25T18:41:27.235Z,11.20
2023-01-25T18:43:54.278Z,11.17
2023-01-25T18:46:24.201Z,11.14
2023-01-25T18:48:51.292Z,11.14
2023-01-25T18:51:18.175Z,11.10
2023-01-25T18:53:47.700Z,11.04
2023-01-25T18:56:16.392Z,10.97
2023-01-25T18:58:44.079Z,10.88
2023-01-25T19:01:20.146Z,10.86
2023-01-25T19:03:48.627Z,10.86
2023-01-25T19:06:16.515Z,10.81
2023-01-25T19:08:46.874Z,10.79
2023-01-25T19:11:16.055Z,10.77
2023-01-25T19:13:44.200Z,10.72
2023-01-25T19:16:24.371Z,10.68
2023-01-25T19:18:53.736Z,10.66
2023-01-25T19:21:26.419Z,10.53
2023-01-25T19:23:55.182Z,10.57
2023-01-25T19:26:25.582Z,10.59
2023-01-25T19:28:53.336Z,10.54
2023-01-25T19:31:25.322Z,10.50
2023-01-25T19:33:57.386Z,10.50
2023-01-25T19:36:24.464Z,10.46
2023-01-25T19:38:51.576Z,10.49
2023-01-25T19:41:21.231Z,10.50
2023-01-25T19:43:48.981Z,10.47
2023-01-25T19:46:16.981Z,10.47
2023-01-25T19:48:46.776Z,10.47
2023-01-25T19:51:26.051Z,10.35
2023-01-25T19:54:00.221Z,10.37
2023-01-25T19:56:29.441Z,10.37
2023-01-25T19:58:56.977Z,10.29
2023-01-25T20:01:29.150Z,10.30
2023-01-25T20:04:02.274Z,10.29
2023-01-25T20:06:29.414Z,10.30
2023-01-25T20:08:56.544Z,10.25
2023-01-25T20:11:26.078Z,10.21
2023-01-25T20:13:56.873Z,10.20
2023-01-25T20:16:25.002Z,10.18
2023-01-25T20:18:51.992Z,10.14
2023-01-25T20:21:21.531Z,10.07
2023-01-25T20:23:53.091Z,9.97
2023-01-25T20:26:23.272Z,9.97
2023-01-25T20:28:52.612Z,9.86
2023-01-25T20:31:25.568Z,9.87
2023-01-25T20:33:55.308Z,9.84
2023-01-25T20:36:23.760Z,9.81
2023-01-25T20:38:51.366Z,9.79
2023-01-25T20:41:19.172Z,9.76
2023-01-25T20:43:51.264Z,9.74
2023-01-25T20:46:19.714Z,9.72
2023-01-25T20:48:47.358Z,9.65
2023-01-25T20:51:17.217Z,9.64
2023-01-25T20:53:45.958Z,9.66
2023-01-25T20:56:13.937Z,9.62
2023-01-25T20:58:41.855Z,9.65
2023-01-25T21:01:17.549Z,9.68
2023-01-25T21:03:44.755Z,9.62
2023-01-25T21:06:12.439Z,9.53
2023-01-25T21:08:40.011Z,9.54
2023-01-25T21:11:07.863Z,9.56
2023-01-25T21:13:35.185Z,9.53
2023-01-25T21:16:10.216Z,9.53
2023-01-25T21:18:40.226Z,9.51
2023-01-25T21:21:11.967Z,9.49
2023-01-25T21:23:41.089Z,9.45
2023-01-25T21:26:10.774Z,9.44
2023-01-25T21:28:37.748Z,9.47
2023-01-25T21:31:12.235Z,9.39
2023-01-25T21:33:40.130Z,9.38
2023-01-25T21:36:08.764Z,9.42
2023-01-25T21:38:36.311Z,9.39
2023-01-25T21:41:05.542Z,9.38
2023-01-25T21:43:52.515Z,9.37
2023-01-25T21:46:27.129Z,9.37
2023-01-25T21:49:14.879Z,9.36
2023-01-25T21:51:49.819Z,9.35
2023-01-25T21:54:20.836Z,9.33
2023-01-25T21:56:49.551Z,9.33
2023-01-25T21:59:17.579Z,9.30
2023-01-25T22:01:45.938Z,9.28
2023-01-25T22:04:14.861Z,9.26
2023-01-25T22:06:42.225Z,9.26
2023-01-25T22:09:09.877Z,9.25
2023-01-25T22:11:37.253Z,9.23
2023-01-25T22:14:04.512Z,9.19
2023-01-25T22:16:31.664Z,9.17
2023-01-25T22:19:00.586Z,9.18
2023-01-25T22:21:33.204Z,9.16
2023-01-25T22:24:02.370Z,9.13
2023-01-25T22:26:51.680Z,9.09
2023-01-25T22:29:18.675Z,9.06
2023-01-25T22:31:45.747Z,9.01
2023-01-25T22:34:12.857Z,8.98
2023-01-25T22:36:39.732Z,8.94
2023-01-25T22:39:06.656Z,8.91
2023-01-25T22:41:37.053Z,8.88
2023-01-25T22:44:05.145Z,8.87
2023-01-25T22:46:32.291Z,8.84
2023-01-25T22:48:59.657Z,8.82
2023-01-25T22:51:29.526Z,8.80
2023-01-25T22:53:58.107Z,8.75
2023-01-25T22:56:27.712Z,8.73
2023-01-25T22:58:54.815Z,8.70
2023-01-25T23:01:24.863Z,8.65
2023-01-25T23:03:52.799Z,8.62
2023-01-25T23:06:25.488Z,8.60
2023-01-25T23:08:56.295Z,8.54
2023-01-25T23:11:25.027Z,8.54
2023-01-25T23:14:13.531Z,8.48
2023-01-25T23:16:40.475Z,8.45
2023-01-25T23:19:07.393Z,8.48
2023-01-25T23:21:35.828Z,8.47
2023-01-25T23:24:04.274Z,8.45
2023-01-25T23:26:37.786Z,8.41
2023-01-25T23:29:13.524Z,8.39
2023-01-25T23:31:40.641Z,8.38
2023-01-25T23:34:07.923Z,8.36
2023-01-25T23:36:39.297Z,8.30
2023-01-25T23:39:06.586Z,8.30
2023-01-25T23:41:37.274Z,8.29
2023-01-25T23:44:04.618Z,8.28
2023-01-25T23:46:31.737Z,8.21
2023-01-25T23:48:58.976Z,8.22
2023-01-25T23:51:26.171Z,8.13
2023-01-25T23:53:57.794Z,8.11
2023-01-25T23:56:24.839Z,8.13
2023-01-25T23:58:51.848Z,8.13
